sensor_id;sensor_type;location;lat;lon;timestamp;pressure;altitude;pressure_sealevel;temperature;humidity
18784;BME280;9520;50.954;6.968;2023-01-16T00:00:17;99254.47;;;13.70;42.91
18784;BME280;9520;50.954;6.968;2023-01-16T00:00:38;99254.94;;;13.78;42.70
18784;BME280;9520;50.954;6.968;2023-01-16T00:01:01;99227.59;;;13.60;42.53
18784;BME280;9520;50.954;6.968;2023-01-16T00:01:24;99249.56;;;13.79;42.82
18784;BME280;9520;50.954;6.968;2023-01-16T00:01:47;99256.28;;;13.69;42.72
18784;BME280;9520;50.954;6.968;2023-01-16T00:02:09;99257.59;;;13.78;42.68
18784;BME280;9520;50.954;6.968;2023-01-16T00:02:31;99250.50;;;13.78;42.66
18784;BME280;9520;50.954;6.968;2023-01-16T00:02:54;99254.00;;;13.79;42.65
18784;BME280;9520;50.954;6.968;2023-01-16T00:03:16;99253.84;;;13.82;42.62
18784;BME280;9520;50.954;6.968;2023-01-16T00:03:38;99254.00;;;13.79;42.67
18784;BME280;9520;50.954;6.968;2023-01-16T00:04:00;99254.81;;;13.81;42.77
18784;BME280;9520;50.954;6.968;2023-01-16T00:04:22;99257.28;;;13.84;42.73
18784;BME280;9520;50.954;6.968;2023-01-16T00:04:44;99259.59;;;13.73;43.18
18784;BME280;9520;50.954;6.968;2023-01-16T00:05:07;99262.66;;;13.65;43.30
18784;BME280;9520;50.954;6.968;2023-01-16T00:05:29;99249.13;;;13.71;43.19
18784;BME280;9520;50.954;6.968;2023-01-16T00:05:51;99250.03;;;13.70;42.82
18784;BME280;9520;50.954;6.968;2023-01-16T00:06:13;99245.50;;;13.72;42.79
18784;BME280;9520;50.954;6.968;2023-01-16T00:06:35;99249.47;;;13.64;42.70
18784;BME280;9520;50.954;6.968;2023-01-16T00:06:59;99249.41;;;13.65;42.68
18784;BME280;9520;50.954;6.968;2023-01-16T00:07:21;99248.50;;;13.66;42.83
18784;BME280;9520;50.954;6.968;2023-01-16T00:07:42;99229.63;;;13.55;42.71
18784;BME280;9520;50.954;6.968;2023-01-16T00:08:04;99243.38;;;13.62;42.92
18784;BME280;9520;50.954;6.968;2023-01-16T00:08:27;99240.53;;;13.66;42.83
18784;BME280;9520;50.954;6.968;2023-01-16T00:08:48;99244.97;;;13.66;42.72
18784;BME280;9520;50.954;6.968;2023-01-16T00:09:10;99246.75;;;13.65;42.84
18784;BME280;9520;50.954;6.968;2023-01-16T00:09:32;99244.88;;;13.67;42.86
18784;BME280;9520;50.954;6.968;2023-01-16T00:09:54;99234.16;;;13.70;42.93
18784;BME280;9520;50.954;6.968;2023-01-16T00:10:16;99233.34;;;13.68;42.92
18784;BME280;9520;50.954;6.968;2023-01-16T00:10:38;99234.03;;;13.72;42.98
18784;BME280;9520;50.954;6.968;2023-01-16T00:11:00;99233.97;;;13.73;42.95
18784;BME280;9520;50.954;6.968;2023-01-16T00:11:23;99211.59;;;13.62;42.82
18784;BME280;9520;50.954;6.968;2023-01-16T00:11:44;99232.50;;;13.68;42.83
18784;BME280;9520;50.954;6.968;2023-01-16T00:12:06;99229.78;;;13.69;42.85
18784;BME280;9520;50.954;6.968;2023-01-16T00:12:28;99235.16;;;13.68;42.81
18784;BME280;9520;50.954;6.968;2023-01-16T00:12:51;99242.09;;;13.70;42.78
18784;BME280;9520;50.954;6.968;2023-01-16T00:13:13;99240.31;;;13.71;42.70
18784;BME280;9520;50.954;6.968;2023-01-16T00:13:35;99209.97;;;13.59;42.61
18784;BME280;9520;50.954;6.968;2023-01-16T00:13:57;99233.81;;;13.76;42.62
18784;BME280;9520;50.954;6.968;2023-01-16T00:14:20;99225.97;;;13.75;42.77
18784;BME280;9520;50.954;6.968;2023-01-16T00:14:42;99224.16;;;13.75;42.72
18784;BME280;9520;50.954;6.968;2023-01-16T00:15:04;99225.72;;;13.79;42.70
18784;BME280;9520;50.954;6.968;2023-01-16T00:15:26;99234.53;;;13.80;42.71
18784;BME280;9520;50.954;6.968;2023-01-16T00:15:50;99230.94;;;13.81;42.79
18784;BME280;9520;50.954;6.968;2023-01-16T00:16:12;99223.75;;;13.83;42.82
18784;BME280;9520;50.954;6.968;2023-01-16T00:16:34;99229.06;;;13.83;42.87
18784;BME280;9520;50.954;6.968;2023-01-16T00:16:57;99213.56;;;13.75;42.84
18784;BME280;9520;50.954;6.968;2023-01-16T00:17:20;99226.66;;;13.78;42.73
18784;BME280;9520;50.954;6.968;2023-01-16T00:17:42;99226.66;;;13.78;42.73
18784;BME280;9520;50.954;6.968;2023-01-16T00:18:04;99225.16;;;13.73;42.85
18784;BME280;9520;50.954;6.968;2023-01-16T00:18:27;99223.31;;;13.75;42.79
18784;BME280;9520;50.954;6.968;2023-01-16T00:18:49;99224.25;;;13.74;42.74
18784;BME280;9520;50.954;6.968;2023-01-16T00:19:10;99226.88;;;13.74;42.78
18784;BME280;9520;50.954;6.968;2023-01-16T00:19:32;99227.69;;;13.76;42.67
18784;BME280;9520;50.954;6.968;2023-01-16T00:19:55;99222.69;;;13.70;42.84
18784;BME280;9520;50.954;6.968;2023-01-16T00:20:17;99219.97;;;13.71;42.99
18784;BME280;9520;50.954;6.968;2023-01-16T00:20:39;99220.28;;;13.65;43.00
18784;BME280;9520;50.954;6.968;2023-01-16T00:21:01;99216.53;;;13.69;42.93
18784;BME280;9520;50.954;6.968;2023-01-16T00:21:24;99220.78;;;13.72;42.92
18784;BME280;9520;50.954;6.968;2023-01-16T00:21:47;99227.13;;;13.69;42.97
18784;BME280;9520;50.954;6.968;2023-01-16T00:22:10;99219.34;;;13.66;43.06
18784;BME280;9520;50.954;6.968;2023-01-16T00:22:32;99222.81;;;13.67;43.03
18784;BME280;9520;50.954;6.968;2023-01-16T00:22:54;99186.00;;;13.45;43.09
18784;BME280;9520;50.954;6.968;2023-01-16T00:23:16;99216.84;;;13.63;43.00
18784;BME280;9520;50.954;6.968;2023-01-16T00:23:38;99221.13;;;13.66;42.95
18784;BME280;9520;50.954;6.968;2023-01-16T00:24:00;99211.53;;;13.63;43.11
18784;BME280;9520;50.954;6.968;2023-01-16T00:24:22;99218.47;;;13.66;43.10
18784;BME280;9520;50.954;6.968;2023-01-16T00:24:44;99207.97;;;13.64;43.14
18784;BME280;9520;50.954;6.968;2023-01-16T00:25:07;99207.88;;;13.66;43.05
18784;BME280;9520;50.954;6.968;2023-01-16T00:25:29;99213.72;;;13.72;42.86
18784;BME280;9520;50.954;6.968;2023-01-16T00:25:50;99217.91;;;13.76;43.11
18784;BME280;9520;50.954;6.968;2023-01-16T00:26:12;99182.00;;;13.54;42.88
18784;BME280;9520;50.954;6.968;2023-01-16T00:26:35;99210.06;;;13.75;43.07
18784;BME280;9520;50.954;6.968;2023-01-16T00:26:57;99208.34;;;13.74;43.10
18784;BME280;9520;50.954;6.968;2023-01-16T00:27:20;99207.78;;;13.67;42.98
18784;BME280;9520;50.954;6.968;2023-01-16T00:27:41;99213.56;;;13.75;43.18
18784;BME280;9520;50.954;6.968;2023-01-16T00:28:04;99214.31;;;13.77;43.12
18784;BME280;9520;50.954;6.968;2023-01-16T00:28:26;99209.03;;;13.77;42.95
18784;BME280;9520;50.954;6.968;2023-01-16T00:28:48;99202.41;;;13.69;42.96
18784;BME280;9520;50.954;6.968;2023-01-16T00:29:09;99160.44;;;13.44;43.07
18784;BME280;9520;50.954;6.968;2023-01-16T00:29:32;99213.56;;;13.75;43.09
18784;BME280;9520;50.954;6.968;2023-01-16T00:29:54;99210.06;;;13.75;43.12
18784;BME280;9520;50.954;6.968;2023-01-16T00:30:16;99202.50;;;13.67;43.11
18784;BME280;9520;50.954;6.968;2023-01-16T00:30:38;99213.19;;;13.66;43.42
18784;BME280;9520;50.954;6.968;2023-01-16T00:31:00;99211.22;;;13.69;43.44
18784;BME280;9520;50.954;6.968;2023-01-16T00:31:22;99212.41;;;13.64;43.35
18784;BME280;9520;50.954;6.968;2023-01-16T00:31:45;99204.63;;;13.61;43.34
18784;BME280;9520;50.954;6.968;2023-01-16T00:32:07;99209.69;;;13.65;43.23
18784;BME280;9520;50.954;6.968;2023-01-16T00:32:31;99199.09;;;13.65;43.29
18784;BME280;9520;50.954;6.968;2023-01-16T00:32:53;99175.22;;;13.48;43.37
18784;BME280;9520;50.954;6.968;2023-01-16T00:33:15;99200.31;;;13.58;43.38
18784;BME280;9520;50.954;6.968;2023-01-16T00:33:37;99201.09;;;13.60;43.35
18784;BME280;9520;50.954;6.968;2023-01-16T00:34:00;99201.81;;;13.64;43.40
18784;BME280;9520;50.954;6.968;2023-01-16T00:34:21;99208.44;;;13.55;43.59
18784;BME280;9520;50.954;6.968;2023-01-16T00:34:43;99205.63;;;13.58;43.70
18784;BME280;9520;50.954;6.968;2023-01-16T00:35:06;99207.34;;;13.59;43.78
18784;BME280;9520;50.954;6.968;2023-01-16T00:35:29;99212.63;;;13.59;43.71
18784;BME280;9520;50.954;6.968;2023-01-16T00:35:51;99206.31;;;13.62;43.75
18784;BME280;9520;50.954;6.968;2023-01-16T00:36:13;99208.88;;;13.63;43.82
18784;BME280;9520;50.954;6.968;2023-01-16T00:36:34;99199.38;;;13.59;43.76
18784;BME280;9520;50.954;6.968;2023-01-16T00:36:59;99196.75;;;13.59;43.93
18784;BME280;9520;50.954;6.968;2023-01-16T00:37:23;99199.56;;;13.56;44.16
18784;BME280;9520;50.954;6.968;2023-01-16T00:37:44;99193.28;;;13.57;44.20
18784;BME280;9520;50.954;6.968;2023-01-16T00:38:06;99198.34;;;13.62;44.00
18784;BME280;9520;50.954;6.968;2023-01-16T00:38:29;99200.19;;;13.61;43.76
18784;BME280;9520;50.954;6.968;2023-01-16T00:38:50;99202.03;;;13.59;43.72
18784;BME280;9520;50.954;6.968;2023-01-16T00:39:12;99190.81;;;13.54;43.89
18784;BME280;9520;50.954;6.968;2023-01-16T00:39:35;99197.53;;;13.61;43.94
18784;BME280;9520;50.954;6.968;2023-01-16T00:39:59;99181.31;;;13.50;43.88
18784;BME280;9520;50.954;6.968;2023-01-16T00:40:21;99196.03;;;13.56;44.05
18784;BME280;9520;50.954;6.968;2023-01-16T00:40:43;99189.66;;;13.60;43.97
18784;BME280;9520;50.954;6.968;2023-01-16T00:41:06;99196.56;;;13.62;44.31
18784;BME280;9520;50.954;6.968;2023-01-16T00:41:27;99193.78;;;13.65;44.15
18784;BME280;9520;50.954;6.968;2023-01-16T00:41:49;99192.13;;;13.63;44.25
18784;BME280;9520;50.954;6.968;2023-01-16T00:42:11;99161.84;;;13.51;44.03
18784;BME280;9520;50.954;6.968;2023-01-16T00:42:33;99191.81;;;13.69;44.07
18784;BME280;9520;50.954;6.968;2023-01-16T00:42:55;99190.81;;;13.71;43.97
18784;BME280;9520;50.954;6.968;2023-01-16T00:43:17;99188.19;;;13.71;44.39
18784;BME280;9520;50.954;6.968;2023-01-16T00:43:39;99185.72;;;13.67;44.11
18784;BME280;9520;50.954;6.968;2023-01-16T00:44:01;99185.41;;;13.73;43.93
18784;BME280;9520;50.954;6.968;2023-01-16T00:44:23;99186.47;;;13.70;43.92
18784;BME280;9520;50.954;6.968;2023-01-16T00:44:45;99183.44;;;13.61;43.88
18784;BME280;9520;50.954;6.968;2023-01-16T00:45:08;99204.06;;;13.71;43.61
18784;BME280;9520;50.954;6.968;2023-01-16T00:45:31;99188.19;;;13.71;43.43
18784;BME280;9520;50.954;6.968;2023-01-16T00:45:53;99184.56;;;13.72;43.39
18784;BME280;9520;50.954;6.968;2023-01-16T00:46:14;99188.00;;;13.74;43.48
18784;BME280;9520;50.954;6.968;2023-01-16T00:46:37;99185.28;;;13.76;43.41
18784;BME280;9520;50.954;6.968;2023-01-16T00:46:59;99186.47;;;13.70;43.49
18784;BME280;9520;50.954;6.968;2023-01-16T00:47:21;99186.47;;;13.70;43.56
18784;BME280;9520;50.954;6.968;2023-01-16T00:47:43;99185.53;;;13.71;43.52
18784;BME280;9520;50.954;6.968;2023-01-16T00:48:06;99187.31;;;13.71;44.04
18784;BME280;9520;50.954;6.968;2023-01-16T00:48:28;99190.03;;;13.69;43.98
18784;BME280;9520;50.954;6.968;2023-01-16T00:48:49;99193.47;;;13.71;44.09
18784;BME280;9520;50.954;6.968;2023-01-16T00:49:11;99198.84;;;13.70;44.19
18784;BME280;9520;50.954;6.968;2023-01-16T00:49:34;99176.22;;;13.63;44.14
18784;BME280;9520;50.954;6.968;2023-01-16T00:49:56;99195.56;;;13.65;44.16
18784;BME280;9520;50.954;6.968;2023-01-16T00:50:17;99191.03;;;13.67;43.94
18784;BME280;9520;50.954;6.968;2023-01-16T00:50:39;99183.88;;;13.69;43.64
18784;BME280;9520;50.954;6.968;2023-01-16T00:51:01;99176.16;;;13.64;43.83
18784;BME280;9520;50.954;6.968;2023-01-16T00:51:23;99181.16;;;13.70;43.75
18784;BME280;9520;50.954;6.968;2023-01-16T00:51:45;99180.38;;;13.68;43.76
18784;BME280;9520;50.954;6.968;2023-01-16T00:52:07;99175.84;;;13.70;43.62
18784;BME280;9520;50.954;6.968;2023-01-16T00:52:30;99170.41;;;13.56;43.69
18784;BME280;9520;50.954;6.968;2023-01-16T00:52:52;99179.91;;;13.60;43.62
18784;BME280;9520;50.954;6.968;2023-01-16T00:53:15;99174.50;;;13.62;43.77
18784;BME280;9520;50.954;6.968;2023-01-16T00:53:37;99177.03;;;13.65;44.04
18784;BME280;9520;50.954;6.968;2023-01-16T00:53:58;99174.13;;;13.69;44.08
18784;BME280;9520;50.954;6.968;2023-01-16T00:54:20;99166.19;;;13.69;43.65
18784;BME280;9520;50.954;6.968;2023-01-16T00:54:43;99163.53;;;13.69;43.53
18784;BME280;9520;50.954;6.968;2023-01-16T00:55:05;99171.03;;;13.61;43.80
18784;BME280;9520;50.954;6.968;2023-01-16T00:55:27;99168.16;;;13.66;43.71
18784;BME280;9520;50.954;6.968;2023-01-16T00:55:50;99171.56;;;13.68;43.57
18784;BME280;9520;50.954;6.968;2023-01-16T00:56:14;99154.03;;;13.65;43.39
18784;BME280;9520;50.954;6.968;2023-01-16T00:56:36;99165.25;;;13.70;43.21
18784;BME280;9520;50.954;6.968;2023-01-16T00:56:57;99168.66;;;13.72;43.17
18784;BME280;9520;50.954;6.968;2023-01-16T00:57:19;99174.94;;;13.71;43.05
18784;BME280;9520;50.954;6.968;2023-01-16T00:57:41;99169.44;;;13.74;43.09
18784;BME280;9520;50.954;6.968;2023-01-16T00:58:03;99177.56;;;13.71;43.07
18784;BME280;9520;50.954;6.968;2023-01-16T00:58:25;99168.53;;;13.75;43.16
18784;BME280;9520;50.954;6.968;2023-01-16T00:58:47;99170.31;;;13.75;43.15
18784;BME280;9520;50.954;6.968;2023-01-16T00:59:10;99171.56;;;13.68;43.20
18784;BME280;9520;50.954;6.968;2023-01-16T00:59:31;99171.41;;;13.71;43.23
18784;BME280;9520;50.954;6.968;2023-01-16T00:59:53;99171.56;;;13.68;43.33
18784;BME280;9520;50.954;6.968;2023-01-16T01:00:16;99164.34;;;13.71;43.58
18784;BME280;9520;50.954;6.968;2023-01-16T01:00:39;99175.00;;;13.70;43.49
18784;BME280;9520;50.954;6.968;2023-01-16T01:01:00;99170.44;;;13.72;43.59
18784;BME280;9520;50.954;6.968;2023-01-16T01:01:22;99178.34;;;13.73;43.49
18784;BME280;9520;50.954;6.968;2023-01-16T01:01:44;99183.47;;;13.76;43.29
18784;BME280;9520;50.954;6.968;2023-01-16T01:02:07;99170.22;;;13.76;43.16
18784;BME280;9520;50.954;6.968;2023-01-16T01:02:29;99160.66;;;13.74;43.11
18784;BME280;9520;50.954;6.968;2023-01-16T01:02:51;99177.16;;;13.79;43.15
18784;BME280;9520;50.954;6.968;2023-01-16T01:03:12;99171.78;;;13.80;43.24
18784;BME280;9520;50.954;6.968;2023-01-16T01:03:35;99172.56;;;13.82;43.28
18784;BME280;9520;50.954;6.968;2023-01-16T01:03:57;99146.72;;;13.70;43.31
18784;BME280;9520;50.954;6.968;2023-01-16T01:04:19;99175.06;;;13.86;43.40
18784;BME280;9520;50.954;6.968;2023-01-16T01:04:41;99172.47;;;13.84;43.60
18784;BME280;9520;50.954;6.968;2023-01-16T01:05:03;99168.03;;;13.84;43.71
18784;BME280;9520;50.954;6.968;2023-01-16T01:05:27;99176.69;;;13.88;43.35
18784;BME280;9520;50.954;6.968;2023-01-16T01:05:49;99174.81;;;13.90;43.36
18784;BME280;9520;50.954;6.968;2023-01-16T01:06:11;99153.63;;;13.73;43.29
18784;BME280;9520;50.954;6.968;2023-01-16T01:06:33;99158.53;;;13.80;43.12
18784;BME280;9520;50.954;6.968;2023-01-16T01:06:55;99167.25;;;13.82;42.96
18784;BME280;9520;50.954;6.968;2023-01-16T01:07:17;99163.66;;;13.83;43.07
18784;BME280;9520;50.954;6.968;2023-01-16T01:07:40;99164.59;;;13.82;43.10
18784;BME280;9520;50.954;6.968;2023-01-16T01:08:02;99160.16;;;13.83;42.87
18784;BME280;9520;50.954;6.968;2023-01-16T01:08:24;99136.19;;;13.69;42.54
18784;BME280;9520;50.954;6.968;2023-01-16T01:08:46;99157.59;;;13.81;43.42
18784;BME280;9520;50.954;6.968;2023-01-16T01:09:08;99156.56;;;13.84;43.38
18784;BME280;9520;50.954;6.968;2023-01-16T01:09:30;99160.00;;;13.86;43.11
18784;BME280;9520;50.954;6.968;2023-01-16T01:09:52;99141.59;;;13.83;43.00
18784;BME280;9520;50.954;6.968;2023-01-16T01:10:14;99152.81;;;13.88;43.01
18784;BME280;9520;50.954;6.968;2023-01-16T01:10:37;99147.53;;;13.88;42.96
18784;BME280;9520;50.954;6.968;2023-01-16T01:11:06;99154.78;;;13.84;43.00
18784;BME280;9520;50.954;6.968;2023-01-16T01:11:28;99143.41;;;13.82;42.88
18784;BME280;9520;50.954;6.968;2023-01-16T01:11:50;99150.84;;;13.92;42.83
18784;BME280;9520;50.954;6.968;2023-01-16T01:12:12;99156.34;;;13.89;42.80
18784;BME280;9520;50.954;6.968;2023-01-16T01:12:34;99149.06;;;13.92;42.74
18784;BME280;9520;50.954;6.968;2023-01-16T01:12:55;99155.22;;;13.93;42.71
18784;BME280;9520;50.954;6.968;2023-01-16T01:13:18;99146.59;;;13.89;42.69
18784;BME280;9520;50.954;6.968;2023-01-16T01:13:41;99149.63;;;13.81;42.78
18784;BME280;9520;50.954;6.968;2023-01-16T01:14:03;99149.72;;;13.80;42.82
18784;BME280;9520;50.954;6.968;2023-01-16T01:14:25;99151.44;;;13.81;42.94
18784;BME280;9520;50.954;6.968;2023-01-16T01:14:47;99145.28;;;13.80;42.95
18784;BME280;9520;50.954;6.968;2023-01-16T01:15:10;99143.25;;;13.86;42.86
18784;BME280;9520;50.954;6.968;2023-01-16T01:15:32;99149.56;;;13.83;42.99
18784;BME280;9520;50.954;6.968;2023-01-16T01:15:53;99144.19;;;13.84;42.80
18784;BME280;9520;50.954;6.968;2023-01-16T01:16:16;99147.53;;;13.88;42.87
18784;BME280;9520;50.954;6.968;2023-01-16T01:16:38;99143.41;;;13.82;42.91
18784;BME280;9520;50.954;6.968;2023-01-16T01:17:01;99140.69;;;13.84;43.10
18784;BME280;9520;50.954;6.968;2023-01-16T01:17:23;99135.63;;;13.79;43.00
18784;BME280;9520;50.954;6.968;2023-01-16T01:17:45;99147.44;;;13.90;42.83
18784;BME280;9520;50.954;6.968;2023-01-16T01:18:07;99145.66;;;13.90;42.99
18784;BME280;9520;50.954;6.968;2023-01-16T01:18:28;99141.22;;;13.91;43.16
18784;BME280;9520;50.954;6.968;2023-01-16T01:18:51;99143.75;;;13.92;43.18
18784;BME280;9520;50.954;6.968;2023-01-16T01:19:13;99146.41;;;13.92;42.99
18784;BME280;9520;50.954;6.968;2023-01-16T01:19:35;99130.75;;;13.88;42.87
18784;BME280;9520;50.954;6.968;2023-01-16T01:19:56;99142.66;;;13.96;43.02
18784;BME280;9520;50.954;6.968;2023-01-16T01:20:18;99140.72;;;14.00;43.14
18784;BME280;9520;50.954;6.968;2023-01-16T01:20:41;99140.63;;;14.01;43.09
18784;BME280;9520;50.954;6.968;2023-01-16T01:21:03;99099.28;;;13.81;43.11
18784;BME280;9520;50.954;6.968;2023-01-16T01:21:24;99141.47;;;14.02;42.80
18784;BME280;9520;50.954;6.968;2023-01-16T01:21:47;99135.41;;;14.00;42.78
18784;BME280;9520;50.954;6.968;2023-01-16T01:22:09;99142.44;;;14.01;42.68
18784;BME280;9520;50.954;6.968;2023-01-16T01:22:31;99134.56;;;13.99;42.66
18784;BME280;9520;50.954;6.968;2023-01-16T01:22:54;99136.34;;;13.99;42.57
18784;BME280;9520;50.954;6.968;2023-01-16T01:23:55;99127.78;;;13.94;42.79
18784;BME280;9520;50.954;6.968;2023-01-16T01:24:17;99137.59;;;13.92;42.67
18784;BME280;9520;50.954;6.968;2023-01-16T01:24:39;99118.38;;;13.88;42.82
18784;BME280;9520;50.954;6.968;2023-01-16T01:25:00;99133.16;;;13.92;42.91
18784;BME280;9520;50.954;6.968;2023-01-16T01:25:23;99105.78;;;13.76;43.07
18784;BME280;9520;50.954;6.968;2023-01-16T01:25:45;99136.69;;;13.93;42.88
18784;BME280;9520;50.954;6.968;2023-01-16T01:26:08;99128.91;;;13.90;43.14
18784;BME280;9520;50.954;6.968;2023-01-16T01:26:30;99123.53;;;13.91;43.00
18784;BME280;9520;50.954;6.968;2023-01-16T01:26:53;99115.19;;;13.81;42.96
18784;BME280;9520;50.954;6.968;2023-01-16T01:27:15;99109.06;;;13.81;43.14
18784;BME280;9520;50.954;6.968;2023-01-16T01:27:37;99108.19;;;13.80;43.04
18784;BME280;9520;50.954;6.968;2023-01-16T01:27:59;99103.22;;;13.74;42.93
18784;BME280;9520;50.954;6.968;2023-01-16T01:28:20;99115.44;;;13.77;43.11
18784;BME280;9520;50.954;6.968;2023-01-16T01:28:43;99111.56;;;13.67;43.19
18784;BME280;9520;50.954;6.968;2023-01-16T01:29:05;99111.72;;;13.64;43.39
18784;BME280;9520;50.954;6.968;2023-01-16T01:29:27;99094.78;;;13.51;43.32
18784;BME280;9520;50.954;6.968;2023-01-16T01:29:48;99108.78;;;13.53;43.32
18784;BME280;9520;50.954;6.968;2023-01-16T01:30:11;99104.50;;;13.50;43.56
18784;BME280;9520;50.954;6.968;2023-01-16T01:30:34;99094.22;;;13.44;43.57
18784;BME280;9520;50.954;6.968;2023-01-16T01:30:56;99104.97;;;13.58;43.31
18784;BME280;9520;50.954;6.968;2023-01-16T01:31:17;99108.72;;;13.54;43.78
18784;BME280;9520;50.954;6.968;2023-01-16T01:31:39;99104.19;;;13.56;43.52
18784;BME280;9520;50.954;6.968;2023-01-16T01:32:02;99108.72;;;13.54;43.66
18784;BME280;9520;50.954;6.968;2023-01-16T01:32:24;99110.50;;;13.54;43.49
18784;BME280;9520;50.954;6.968;2023-01-16T01:32:45;99098.34;;;13.50;43.54
18784;BME280;9520;50.954;6.968;2023-01-16T01:33:07;99104.66;;;13.47;43.70
18784;BME280;9520;50.954;6.968;2023-01-16T01:33:31;99098.59;;;13.45;43.58
18784;BME280;9520;50.954;6.968;2023-01-16T01:33:53;99094.06;;;13.47;43.65
18784;BME280;9520;50.954;6.968;2023-01-16T01:34:14;99088.63;;;13.50;43.63
18784;BME280;9520;50.954;6.968;2023-01-16T01:34:36;99090.34;;;13.51;43.58
18784;BME280;9520;50.954;6.968;2023-01-16T01:34:59;99087.69;;;13.34;43.82
18784;BME280;9520;50.954;6.968;2023-01-16T01:35:22;99092.69;;;13.40;43.61
18784;BME280;9520;50.954;6.968;2023-01-16T01:35:43;99090.78;;;13.42;43.77
18784;BME280;9520;50.954;6.968;2023-01-16T01:36:06;99086.47;;;13.41;43.78
18784;BME280;9520;50.954;6.968;2023-01-16T01:36:29;99091.66;;;13.43;43.82
18784;BME280;9520;50.954;6.968;2023-01-16T01:36:51;99092.44;;;13.45;43.85
18784;BME280;9520;50.954;6.968;2023-01-16T01:37:12;99096.63;;;13.49;43.91
18784;BME280;9520;50.954;6.968;2023-01-16T01:37:35;99096.56;;;13.50;43.90
18784;BME280;9520;50.954;6.968;2023-01-16T01:37:59;99092.63;;;13.42;43.97
18784;BME280;9520;50.954;6.968;2023-01-16T01:38:20;99093.22;;;13.47;43.92
18784;BME280;9520;50.954;6.968;2023-01-16T01:38:42;99096.63;;;13.49;43.93
18784;BME280;9520;50.954;6.968;2023-01-16T01:39:04;99092.19;;;13.49;43.87
18784;BME280;9520;50.954;6.968;2023-01-16T01:39:26;99092.88;;;13.53;43.86
18784;BME280;9520;50.954;6.968;2023-01-16T01:39:48;99089.31;;;13.54;43.79
18784;BME280;9520;50.954;6.968;2023-01-16T01:40:11;99093.59;;;13.56;43.76
18784;BME280;9520;50.954;6.968;2023-01-16T01:40:33;99097.25;;;13.54;43.66
18784;BME280;9520;50.954;6.968;2023-01-16T01:40:56;99095.03;;;13.46;43.95
18784;BME280;9520;50.954;6.968;2023-01-16T01:41:17;99094.91;;;13.48;44.01
18784;BME280;9520;50.954;6.968;2023-01-16T01:41:39;99088.00;;;13.45;43.84
18784;BME280;9520;50.954;6.968;2023-01-16T01:42:01;99092.44;;;13.45;44.16
18784;BME280;9520;50.954;6.968;2023-01-16T01:42:41;99094.91;;;13.48;44.01
18784;BME280;9520;50.954;6.968;2023-01-16T01:43:10;99087.06;;;13.46;44.15
18784;BME280;9520;50.954;6.968;2023-01-16T01:43:42;99091.34;;;13.49;43.85
18784;BME280;9520;50.954;6.968;2023-01-16T01:45:01;99083.41;;;13.49;44.12
18784;BME280;9520;50.954;6.968;2023-01-16T01:45:27;99077.47;;;13.44;44.01
18784;BME280;9520;50.954;6.968;2023-01-16T01:45:51;99075.06;;;13.39;44.11
18784;BME280;9520;50.954;6.968;2023-01-16T01:46:21;99087.06;;;13.46;44.15
18784;BME280;9520;50.954;6.968;2023-01-16T01:46:46;99069.59;;;13.42;44.16
18784;BME280;9520;50.954;6.968;2023-01-16T01:47:08;99084.50;;;13.45;44.33
18784;BME280;9520;50.954;6.968;2023-01-16T01:47:33;99081.91;;;13.43;44.64
18784;BME280;9520;50.954;6.968;2023-01-16T01:47:59;99074.38;;;13.35;44.65
18784;BME280;9520;50.954;6.968;2023-01-16T01:48:26;99081.00;;;13.44;44.63
18784;BME280;9520;50.954;6.968;2023-01-16T01:48:51;99071.19;;;13.46;44.17
18784;BME280;9520;50.954;6.968;2023-01-16T01:49:22;99063.00;;;13.51;43.93
18784;BME280;9520;50.954;6.968;2023-01-16T01:49:45;99075.06;;;13.56;44.14
18784;BME280;9520;50.954;6.968;2023-01-16T01:50:13;99056.97;;;13.47;43.88
18784;BME280;9520;50.954;6.968;2023-01-16T01:50:41;99070.53;;;13.58;44.01
18784;BME280;9520;50.954;6.968;2023-01-16T01:51:06;99068.03;;;13.55;44.10
18784;BME280;9520;50.954;6.968;2023-01-16T01:51:36;99070.78;;;13.54;44.16
18784;BME280;9520;50.954;6.968;2023-01-16T01:52:01;99067.13;;;13.56;44.47
18784;BME280;9520;50.954;6.968;2023-01-16T01:52:25;99070.09;;;13.50;44.37
18784;BME280;9520;50.954;6.968;2023-01-16T01:52:48;99068.44;;;13.48;44.15
18784;BME280;9520;50.954;6.968;2023-01-16T01:53:17;99064.78;;;13.50;44.32
18784;BME280;9520;50.954;6.968;2023-01-16T01:53:43;99030.56;;;13.30;44.18
18784;BME280;9520;50.954;6.968;2023-01-16T01:54:09;99058.69;;;13.48;44.34
18784;BME280;9520;50.954;6.968;2023-01-16T01:54:35;99059.63;;;13.47;44.55
18784;BME280;9520;50.954;6.968;2023-01-16T01:55:00;99062.13;;;13.50;44.52
18784;BME280;9520;50.954;6.968;2023-01-16T01:55:23;99065.03;;;13.46;44.60
18784;BME280;9520;50.954;6.968;2023-01-16T01:55:47;99057.09;;;13.46;44.48
18784;BME280;9520;50.954;6.968;2023-01-16T01:56:12;99068.00;;;13.39;44.47
18784;BME280;9520;50.954;6.968;2023-01-16T01:56:38;99058.66;;;13.32;44.60
18784;BME280;9520;50.954;6.968;2023-01-16T01:57:06;99055.94;;;13.34;44.74
18784;BME280;9520;50.954;6.968;2023-01-16T01:57:33;99052.19;;;13.38;44.65
18784;BME280;9520;50.954;6.968;2023-01-16T01:57:58;99049.28;;;13.43;44.60
18784;BME280;9520;50.954;6.968;2023-01-16T01:58:22;99051.84;;;13.44;44.62
18784;BME280;9520;50.954;6.968;2023-01-16T01:58:49;99041.59;;;13.38;44.45
18784;BME280;9520;50.954;6.968;2023-01-16T01:59:16;99044.09;;;13.41;44.70
18784;BME280;9520;50.954;6.968;2023-01-16T01:59:41;99023.09;;;13.21;44.56
18784;BME280;9520;50.954;6.968;2023-01-16T02:00:07;99041.69;;;13.36;44.62
18784;BME280;9520;50.954;6.968;2023-01-16T02:00:34;99048.22;;;13.29;44.69
18784;BME280;9520;50.954;6.968;2023-01-16T02:00:57;99037.09;;;13.23;44.55
18784;BME280;9520;50.954;6.968;2023-01-16T02:01:21;99033.94;;;13.16;44.65
18784;BME280;9520;50.954;6.968;2023-01-16T02:01:43;99037.72;;;13.28;44.78
18784;BME280;9520;50.954;6.968;2023-01-16T02:02:08;99038.44;;;13.31;44.70
18784;BME280;9520;50.954;6.968;2023-01-16T02:02:35;99027.91;;;13.30;44.75
18784;BME280;9520;50.954;6.968;2023-01-16T02:03:03;99041.84;;;13.33;44.75
18784;BME280;9520;50.954;6.968;2023-01-16T02:03:30;99040.91;;;13.34;44.56
18784;BME280;9520;50.954;6.968;2023-01-16T02:03:57;99034.75;;;13.34;44.59